Time;durP1;ratioP1;P1;durP2;ratioP2;P2;SDS_P1;SDS_P2;PMS_P1;PMS_P2;Temp;Humidity;BMP_temperature;BMP_pressure;BME280_temperature;BME280_humidity;BME280_pressure;Samples;Min_cycle;Max_cycle;Signal;HPM_P1;HPM_P2
2022/10/02 00:01:40;;;;;;;;;;;15.70;99.90;;;;;;5026051;28;19917;-82
2022/10/02 00:04:09;;;;;;;;;;;15.60;99.90;;;;;;5027815;28;20657;-82
2022/10/02 00:06:54;;;;;;;;;;;15.70;99.90;;;;;;5027389;28;19917;-82
2022/10/02 00:09:29;;;;;;;;;;;15.70;99.90;;;;;;5036857;28;19921;-81
2022/10/02 00:11:56;;;;;;;;;;;15.70;99.90;;;;;;5027921;28;19921;-81
2022/10/02 00:14:23;;;;;;;;;;;15.70;99.90;;;;;;5026073;28;19928;-82
2022/10/02 00:16:50;;;;;;;;;;;15.70;99.90;;;;;;5028432;28;19928;-80
2022/10/02 00:19:17;;;;;;;;;;;15.80;99.90;;;;;;5026724;28;20601;-82
2022/10/02 00:22:01;;;;;;;;;;;15.70;99.90;;;;;;5026519;28;20364;-83
2022/10/02 00:24:33;;;;;;;;;;;15.80;99.90;;;;;;5015651;28;19980;-83
2022/10/02 00:27:02;;;;;;;;;;;15.70;99.90;;;;;;5026569;28;20594;-83
2022/10/02 00:29:34;;;;;;;;;;;15.70;99.90;;;;;;5024644;28;19925;-82
2022/10/02 00:32:09;;;;;;;;;;;15.70;99.90;;;;;;5042320;28;19917;-83
2022/10/02 00:34:47;;;;;;;;;;;15.80;99.90;;;;;;5026998;28;19917;-83
2022/10/02 00:37:27;;;;;;;;;;;15.70;99.90;;;;;;5027111;28;19917;-83
2022/10/02 00:39:56;;;;;;;;;;;15.80;99.90;;;;;;5027441;28;19943;-83
2022/10/02 00:42:33;;;;;;;;;;;15.80;99.90;;;;;;5026562;28;19921;-84
2022/10/02 00:45:19;;;;;;;;;;;15.80;99.90;;;;;;5025791;28;19931;-84
2022/10/02 00:47:53;;;;;;;;;;;15.80;99.90;;;;;;4989326;28;20059;-84
2022/10/02 00:50:19;;;;;;;;;;;15.80;99.90;;;;;;5025563;28;19989;-84
2022/10/02 00:52:54;;;;;;;;;;;15.70;99.90;;;;;;5027441;28;20421;-84
2022/10/02 00:55:19;;;;;;;;;;;15.70;99.90;;;;;;5025152;28;20444;-84
2022/10/02 00:58:04;;;;;;;;;;;15.70;99.90;;;;;;5027145;28;19917;-82
2022/10/02 01:00:30;;;;;;;;;;;15.80;99.90;;;;;;5026236;28;20767;-83
2022/10/02 01:03:05;;;;;;;;;;;15.80;99.90;;;;;;5026806;28;19917;-83
2022/10/02 01:05:33;;;;;;;;;;;15.80;99.90;;;;;;5025811;28;20794;-83
2022/10/02 01:07:59;;;;;;;;;;;15.80;99.90;;;;;;5025487;28;19917;-83
2022/10/02 01:10:25;;;;;;;;;;;15.80;99.90;;;;;;5025251;28;20757;-82
2022/10/02 01:12:51;;;;;;;;;;;15.70;99.90;;;;;;5027040;28;20008;-82
2022/10/02 01:15:18;;;;;;;;;;;15.70;99.90;;;;;;5026974;28;19971;-83
2022/10/02 01:17:45;;;;;;;;;;;15.70;99.90;;;;;;5024671;28;19921;-83
2022/10/02 01:20:16;;;;;;;;;;;15.70;99.90;;;;;;5026148;28;20011;-83
2022/10/02 01:22:53;;;;;;;;;;;15.70;99.90;;;;;;5026580;28;20479;-83
2022/10/02 01:25:18;;;;;;;;;;;15.60;99.90;;;;;;5024017;28;19925;-82
2022/10/02 01:27:44;;;;;;;;;;;15.60;99.90;;;;;;5026994;28;19927;-82
2022/10/02 01:30:11;;;;;;;;;;;15.60;99.90;;;;;;5026441;28;19943;-82
2022/10/02 01:32:41;;;;;;;;;;;15.60;99.90;;;;;;5027136;28;19917;-82
2022/10/02 01:35:07;;;;;;;;;;;15.60;99.90;;;;;;5026336;28;19975;-82
2022/10/02 01:37:35;;;;;;;;;;;15.60;99.90;;;;;;5025482;28;19921;-82
2022/10/02 01:40:04;;;;;;;;;;;15.50;99.90;;;;;;5024950;28;19917;-82
2022/10/02 01:42:30;;;;;;;;;;;15.50;99.90;;;;;;5026358;28;19917;-82
2022/10/02 01:44:56;;;;;;;;;;;15.50;99.90;;;;;;5025257;28;19925;-81
2022/10/02 01:47:30;;;;;;;;;;;15.50;99.90;;;;;;5027006;28;19994;-83
2022/10/02 01:49:59;;;;;;;;;;;15.50;99.90;;;;;;5025753;28;20285;-83
2022/10/02 01:52:36;;;;;;;;;;;15.60;99.90;;;;;;5026347;28;19917;-83
2022/10/02 01:55:28;;;;;;;;;;;15.50;99.90;;;;;;5023526;28;19917;-83
2022/10/02 01:58:12;;;;;;;;;;;15.50;99.90;;;;;;4989200;28;20554;-83
2022/10/02 02:00:43;;;;;;;;;;;15.60;99.90;;;;;;5025856;28;20009;-82
2022/10/02 02:03:28;;;;;;;;;;;15.50;99.90;;;;;;5024690;28;19917;-83
2022/10/02 02:05:58;;;;;;;;;;;15.50;99.90;;;;;;5025748;28;19932;-82
2022/10/02 02:08:43;;;;;;;;;;;15.40;99.90;;;;;;5026330;28;20426;-81
2022/10/02 02:11:18;;;;;;;;;;;15.50;99.90;;;;;;5025246;28;19917;-81
2022/10/02 02:13:46;;;;;;;;;;;15.50;99.90;;;;;;5023505;28;19917;-81
2022/10/02 02:16:32;;;;;;;;;;;15.40;99.90;;;;;;5022536;28;20427;-82
2022/10/02 02:19:00;;;;;;;;;;;15.50;99.90;;;;;;5043310;28;19941;-82
2022/10/02 02:21:31;;;;;;;;;;;15.50;99.90;;;;;;5028467;28;19917;-81
2022/10/02 02:23:58;;;;;;;;;;;15.50;99.90;;;;;;5029207;28;19930;-81
2022/10/02 02:26:26;;;;;;;;;;;15.50;99.90;;;;;;5028933;28;19913;-81
2022/10/02 02:28:54;;;;;;;;;;;15.50;99.90;;;;;;5029120;28;19948;-82
2022/10/02 02:31:23;;;;;;;;;;;15.50;99.90;;;;;;5029451;28;19921;-82
2022/10/02 02:33:55;;;;;;;;;;;15.50;99.90;;;;;;5027921;28;19921;-81
2022/10/02 02:36:22;;;;;;;;;;;15.50;99.90;;;;;;5029743;28;19917;-81
2022/10/02 02:38:50;;;;;;;;;;;15.50;99.90;;;;;;5029432;28;19917;-81
2022/10/02 02:41:20;;;;;;;;;;;15.50;99.90;;;;;;5029479;28;19924;-82
2022/10/02 02:43:49;;;;;;;;;;;15.50;99.90;;;;;;5028957;28;19924;-81
2022/10/02 02:46:22;;;;;;;;;;;15.40;99.90;;;;;;5027385;28;19917;-82
2022/10/02 02:48:53;;;;;;;;;;;15.50;99.90;;;;;;5019638;28;19917;-81
2022/10/02 02:51:25;;;;;;;;;;;15.40;99.90;;;;;;5024117;28;19967;-82
2022/10/02 02:53:55;;;;;;;;;;;15.40;99.90;;;;;;5028362;28;19924;-81
2022/10/02 02:56:21;;;;;;;;;;;15.40;99.90;;;;;;5028416;28;19921;-81
2022/10/02 02:58:57;;;;;;;;;;;15.40;99.90;;;;;;5028148;28;19920;-81
2022/10/02 03:01:23;;;;;;;;;;;15.40;99.90;;;;;;5028892;28;19917;-82
2022/10/02 03:03:48;;;;;;;;;;;15.40;99.90;;;;;;5028724;28;19917;-82
2022/10/02 03:06:14;;;;;;;;;;;15.40;99.90;;;;;;5026638;28;20828;-81
2022/10/02 03:08:39;;;;;;;;;;;15.40;99.90;;;;;;5029731;28;19917;-82
2022/10/02 03:11:11;;;;;;;;;;;15.40;99.90;;;;;;5028836;28;19932;-82
2022/10/02 03:13:55;;;;;;;;;;;15.40;99.90;;;;;;5028850;28;19917;-82
2022/10/02 03:16:33;;;;;;;;;;;15.40;99.90;;;;;;5025436;28;19921;-82
2022/10/02 03:19:14;;;;;;;;;;;15.40;99.90;;;;;;5027082;28;19976;-82
2022/10/02 03:22:03;;;;;;;;;;;15.40;99.90;;;;;;5028734;28;20016;-82
2022/10/02 03:24:39;;;;;;;;;;;15.30;99.90;;;;;;5028894;28;19925;-81
2022/10/02 03:27:08;;;;;;;;;;;15.30;99.90;;;;;;5027212;28;19920;-82
2022/10/02 03:29:54;;;;;;;;;;;15.20;99.90;;;;;;5027355;28;20019;-82
2022/10/02 03:32:20;;;;;;;;;;;15.30;99.90;;;;;;5028026;28;20383;-82
2022/10/02 03:34:47;;;;;;;;;;;15.30;99.90;;;;;;5026703;28;19967;-82
2022/10/02 03:37:12;;;;;;;;;;;15.30;99.90;;;;;;5028232;28;20347;-82
2022/10/02 03:39:44;;;;;;;;;;;15.20;99.90;;;;;;5028265;28;20031;-81
2022/10/02 03:42:11;;;;;;;;;;;15.30;99.90;;;;;;5026170;28;19917;-81
2022/10/02 03:44:36;;;;;;;;;;;15.20;99.90;;;;;;5028393;28;19928;-82
2022/10/02 03:47:02;;;;;;;;;;;15.30;99.90;;;;;;5025698;28;19917;-82
2022/10/02 03:49:27;;;;;;;;;;;15.20;99.90;;;;;;5027267;28;19952;-81
2022/10/02 03:51:53;;;;;;;;;;;15.20;99.90;;;;;;5027482;28;20419;-81
2022/10/02 03:54:20;;;;;;;;;;;15.20;99.90;;;;;;5022702;28;20519;-81
2022/10/02 03:56:51;;;;;;;;;;;15.20;99.90;;;;;;5022677;28;19935;-81
2022/10/02 03:59:24;;;;;;;;;;;15.30;99.90;;;;;;5023925;28;19917;-84
2022/10/02 04:01:51;;;;;;;;;;;15.30;99.90;;;;;;5026322;28;19917;-84
2022/10/02 04:04:20;;;;;;;;;;;15.30;99.90;;;;;;5027903;28;19921;-84
2022/10/02 04:06:47;;;;;;;;;;;15.30;99.90;;;;;;5027454;28;19976;-85
2022/10/02 04:09:30;;;;;;;;;;;15.30;99.90;;;;;;5026911;28;20389;-84
2022/10/02 04:12:00;;;;;;;;;;;15.30;99.90;;;;;;5024817;28;19987;-82
2022/10/02 04:14:38;;;;;;;;;;;15.30;99.90;;;;;;5026536;28;19921;-83
2022/10/02 04:17:03;;;;;;;;;;;15.30;99.90;;;;;;5025117;28;19924;-83
2022/10/02 04:19:34;;;;;;;;;;;15.30;99.90;;;;;;5025649;28;19923;-82
2022/10/02 04:22:13;;;;;;;;;;;15.20;99.90;;;;;;5027019;28;19935;-82
2022/10/02 04:24:44;;;;;;;;;;;15.20;99.90;;;;;;5027556;28;19925;-84
2022/10/02 04:27:28;;;;;;;;;;;15.30;99.90;;;;;;5025514;28;19961;-83
2022/10/02 04:29:58;;;;;;;;;;;15.30;99.90;;;;;;5028054;28;19948;-82
2022/10/02 04:32:25;;;;;;;;;;;15.20;99.90;;;;;;5025874;28;19940;-84
2022/10/02 04:34:51;;;;;;;;;;;15.20;99.90;;;;;;5027360;28;20001;-84
2022/10/02 04:37:30;;;;;;;;;;;15.20;99.90;;;;;;5025754;28;20007;-83
2022/10/02 04:40:16;;;;;;;;;;;15.30;99.90;;;;;;5025375;28;19921;-82
2022/10/02 04:42:44;;;;;;;;;;;15.20;99.90;;;;;;5022115;28;19913;-80
2022/10/02 04:45:10;;;;;;;;;;;15.20;99.90;;;;;;5026539;28;19921;-81
2022/10/02 04:47:44;;;;;;;;;;;15.10;99.90;;;;;;5026653;28;19928;-80
2022/10/02 04:50:10;;;;;;;;;;;15.20;99.90;;;;;;5026339;28;19913;-81
2022/10/02 04:52:47;;;;;;;;;;;15.10;99.90;;;;;;5026366;28;19924;-80
2022/10/02 04:55:16;;;;;;;;;;;15.00;99.90;;;;;;5026230;28;20548;-80
2022/10/02 04:57:41;;;;;;;;;;;15.10;99.90;;;;;;5026469;28;20012;-80
2022/10/02 05:00:11;;;;;;;;;;;15.10;99.90;;;;;;5025386;28;20051;-80
2022/10/02 05:03:01;;;;;;;;;;;15.00;99.90;;;;;;5027636;28;20250;-80
2022/10/02 05:05:33;;;;;;;;;;;15.00;99.90;;;;;;5026197;28;19928;-80
2022/10/02 05:08:13;;;;;;;;;;;15.00;99.90;;;;;;5027828;28;19921;-80
2022/10/02 05:10:47;;;;;;;;;;;15.10;99.90;;;;;;5027326;28;19913;-85
2022/10/02 05:13:13;;;;;;;;;;;15.10;99.90;;;;;;5025545;28;20001;-81
2022/10/02 05:15:44;;;;;;;;;;;15.10;99.90;;;;;;5026662;28;20012;-80
2022/10/02 05:18:36;;;;;;;;;;;15.10;99.90;;;;;;5025608;28;19920;-80
2022/10/02 05:21:24;;;;;;;;;;;15.10;99.90;;;;;;4992404;28;20555;-81
2022/10/02 05:24:09;;;;;;;;;;;15.20;99.90;;;;;;5004102;28;19924;-79
2022/10/02 05:26:53;;;;;;;;;;;15.10;99.90;;;;;;5025256;28;20033;-79
2022/10/02 05:29:22;;;;;;;;;;;15.10;99.90;;;;;;5018051;28;19984;-79
2022/10/02 05:31:50;;;;;;;;;;;15.10;99.90;;;;;;5022039;28;20408;-79
2022/10/02 05:34:16;;;;;;;;;;;15.00;99.90;;;;;;5026274;28;19921;-79
2022/10/02 05:36:57;;;;;;;;;;;15.10;99.90;;;;;;5027121;28;20403;-79
2022/10/02 05:39:28;;;;;;;;;;;15.10;99.90;;;;;;5025959;28;19917;-79
2022/10/02 05:42:00;;;;;;;;;;;15.10;99.90;;;;;;5026222;28;19917;-79
2022/10/02 05:44:34;;;;;;;;;;;15.00;99.90;;;;;;5025087;28;20112;-79
2022/10/02 05:47:12;;;;;;;;;;;14.90;99.90;;;;;;5025241;28;19997;-81
2022/10/02 05:49:42;;;;;;;;;;;14.90;99.90;;;;;;5025032;28;19928;-79
2022/10/02 05:52:26;;;;;;;;;;;14.90;99.90;;;;;;5027664;28;19921;-80
2022/10/02 05:54:57;;;;;;;;;;;14.90;99.90;;;;;;5029863;28;19917;-81
2022/10/02 05:57:30;;;;;;;;;;;14.90;99.90;;;;;;5022172;28;19917;-81
2022/10/02 06:00:03;;;;;;;;;;;14.90;99.90;;;;;;5030195;28;19960;-81
2022/10/02 06:02:40;;;;;;;;;;;14.90;99.90;;;;;;5029183;28;20566;-80
2022/10/02 06:05:29;;;;;;;;;;;14.90;99.90;;;;;;5028426;28;19917;-81
2022/10/02 06:08:01;;;;;;;;;;;14.90;99.90;;;;;;5030681;28;19913;-82
2022/10/02 06:10:31;;;;;;;;;;;14.90;99.90;;;;;;5030079;28;19917;-85
2022/10/02 06:13:15;;;;;;;;;;;15.00;99.90;;;;;;5029139;28;20020;-81
2022/10/02 06:15:41;;;;;;;;;;;15.10;99.90;;;;;;5030561;28;20419;-80
2022/10/02 06:18:09;;;;;;;;;;;15.10;99.90;;;;;;5026618;28;20010;-81
2022/10/02 06:20:34;;;;;;;;;;;15.10;99.90;;;;;;5031169;28;19944;-81
2022/10/02 06:23:03;;;;;;;;;;;15.20;99.90;;;;;;5029689;28;19952;-78
2022/10/02 06:25:37;;;;;;;;;;;15.20;99.90;;;;;;5028506;28;20584;-79
2022/10/02 06:28:18;;;;;;;;;;;15.10;99.90;;;;;;5030519;28;19955;-78
2022/10/02 06:30:48;;;;;;;;;;;15.10;99.90;;;;;;5022735;28;20000;-79
2022/10/02 06:33:19;;;;;;;;;;;15.00;99.90;;;;;;5029432;28;19920;-79
2022/10/02 06:35:45;;;;;;;;;;;15.10;99.90;;;;;;5027196;28;20440;-79
2022/10/02 06:38:10;;;;;;;;;;;15.00;99.90;;;;;;5022162;28;19917;-79
2022/10/02 06:40:54;;;;;;;;;;;15.20;99.90;;;;;;5030388;28;19909;-79
2022/10/02 06:43:26;;;;;;;;;;;15.30;99.90;;;;;;5030062;28;19913;-80
2022/10/02 06:45:52;;;;;;;;;;;15.50;99.90;;;;;;5027343;28;19967;-79
2022/10/02 06:48:23;;;;;;;;;;;15.60;99.90;;;;;;5029627;28;20438;-79
2022/10/02 06:50:55;;;;;;;;;;;15.70;99.90;;;;;;5030270;28;19920;-79
2022/10/02 06:53:21;;;;;;;;;;;15.70;99.90;;;;;;5028982;28;19976;-79
2022/10/02 06:55:50;;;;;;;;;;;15.80;99.90;;;;;;5030140;28;19909;-79
2022/10/02 06:58:20;;;;;;;;;;;15.70;99.90;;;;;;5028214;28;19920;-80
2022/10/02 07:00:49;;;;;;;;;;;15.70;99.90;;;;;;5028952;28;19913;-78
2022/10/02 07:03:41;;;;;;;;;;;15.80;99.90;;;;;;5028967;28;20846;-80
2022/10/02 07:06:09;;;;;;;;;;;15.80;99.90;;;;;;4990945;28;19932;-79
2022/10/02 07:08:37;;;;;;;;;;;15.80;99.90;;;;;;5030313;28;19913;-79
2022/10/02 07:11:22;;;;;;;;;;;15.80;99.90;;;;;;5027534;28;20046;-80
2022/10/02 07:13:47;;;;;;;;;;;15.90;99.90;;;;;;5028671;28;19913;-80
2022/10/02 07:16:22;;;;;;;;;;;16.10;99.90;;;;;;5028281;28;20810;-80
2022/10/02 07:19:06;;;;;;;;;;;16.10;99.90;;;;;;5027635;28;19944;-79
2022/10/02 07:21:35;;;;;;;;;;;16.10;99.90;;;;;;5029616;28;19924;-79
2022/10/02 07:24:18;;;;;;;;;;;16.30;99.90;;;;;;5027661;28;19913;-80
2022/10/02 07:27:10;;;;;;;;;;;16.20;99.90;;;;;;5028954;28;19913;-80
2022/10/02 07:29:36;;;;;;;;;;;16.20;99.90;;;;;;4998131;28;19913;-79
2022/10/02 07:32:21;;;;;;;;;;;16.10;99.90;;;;;;5028726;28;19948;-80
2022/10/02 07:34:47;;;;;;;;;;;16.10;99.90;;;;;;5025011;28;19913;-80
2022/10/02 07:37:31;;;;;;;;;;;16.10;99.90;;;;;;5026007;28;20503;-80
2022/10/02 07:39:57;;;;;;;;;;;16.10;99.90;;;;;;5027346;28;19920;-80
2022/10/02 07:42:30;;;;;;;;;;;16.10;99.90;;;;;;5028598;28;19913;-79
2022/10/02 07:45:23;;;;;;;;;;;16.30;99.90;;;;;;5028456;28;19923;-80
2022/10/02 07:48:01;;;;;;;;;;;16.50;99.90;;;;;;5024662;28;20336;-79
2022/10/02 07:50:39;;;;;;;;;;;16.40;99.90;;;;;;5025757;28;20038;-80
2022/10/02 07:53:05;;;;;;;;;;;16.30;99.90;;;;;;5028284;28;19913;-79
2022/10/02 07:55:32;;;;;;;;;;;16.30;99.90;;;;;;5027154;28;19913;-80
2022/10/02 07:58:14;;;;;;;;;;;16.10;99.90;;;;;;5022750;28;19917;-79
2022/10/02 08:00:44;;;;;;;;;;;16.30;99.90;;;;;;5025196;28;20722;-79
2022/10/02 08:03:17;;;;;;;;;;;16.30;99.90;;;;;;5029372;28;19913;-79
2022/10/02 08:05:48;;;;;;;;;;;16.40;99.90;;;;;;5027337;28;20353;-79
2022/10/02 08:08:17;;;;;;;;;;;16.10;99.90;;;;;;5027963;28;19935;-79
2022/10/02 08:10:46;;;;;;;;;;;16.00;99.90;;;;;;5028565;28;20288;-79
2022/10/02 08:13:38;;;;;;;;;;;16.00;99.90;;;;;;5028168;28;19913;-79
2022/10/02 08:16:05;;;;;;;;;;;16.20;99.90;;;;;;5023190;28;19914;-79
2022/10/02 08:18:38;;;;;;;;;;;16.50;99.90;;;;;;5027152;28;19927;-79
2022/10/02 08:21:08;;;;;;;;;;;16.90;99.90;;;;;;5028490;28;20453;-79
2022/10/02 08:23:36;;;;;;;;;;;16.90;99.90;;;;;;5027209;28;19920;-80
2022/10/02 08:26:02;;;;;;;;;;;17.00;99.90;;;;;;5026069;28;19921;-80
2022/10/02 08:28:36;;;;;;;;;;;17.00;99.90;;;;;;5027757;28;20031;-80
2022/10/02 08:31:07;;;;;;;;;;;17.40;99.90;;;;;;5018184;28;19921;-79
2022/10/02 08:33:32;;;;;;;;;;;18.10;99.90;;;;;;5026435;28;19913;-80
2022/10/02 08:35:58;;;;;;;;;;;17.90;99.90;;;;;;5028235;28;20039;-80
2022/10/02 08:38:23;;;;;;;;;;;17.80;99.90;;;;;;5026297;28;19960;-79
2022/10/02 08:41:08;;;;;;;;;;;17.90;99.90;;;;;;5027695;28;19920;-80
2022/10/02 08:43:52;;;;;;;;;;;18.10;99.90;;;;;;5027539;28;19978;-80
2022/10/02 08:46:18;;;;;;;;;;;18.80;99.90;;;;;;5025996;28;19921;-80
2022/10/02 08:48:55;;;;;;;;;;;18.80;99.90;;;;;;5027028;28;19920;-79
2022/10/02 08:51:30;;;;;;;;;;;18.60;99.90;;;;;;5027348;28;19921;-80
2022/10/02 08:54:19;;;;;;;;;;;18.20;99.90;;;;;;5027186;28;19952;-80
2022/10/02 08:57:00;;;;;;;;;;;18.10;99.90;;;;;;5026939;28;19913;-80
2022/10/02 08:59:25;;;;;;;;;;;18.20;99.90;;;;;;5021086;28;19931;-80
2022/10/02 09:02:10;;;;;;;;;;;18.10;99.90;;;;;;5025187;28;20660;-80
2022/10/02 09:04:59;;;;;;;;;;;18.00;99.90;;;;;;5022110;28;19917;-80
2022/10/02 09:07:44;;;;;;;;;;;18.00;99.90;;;;;;5025702;28;20767;-80
2022/10/02 09:10:44;;;;;;;;;;;17.80;99.90;;;;;;5023921;28;19913;-80
2022/10/02 09:13:27;;;;;;;;;;;18.20;99.90;;;;;;5016635;28;20449;-80
2022/10/02 09:16:00;;;;;;;;;;;18.50;99.90;;;;;;5024074;28;20300;-80
2022/10/02 09:18:32;;;;;;;;;;;18.80;99.90;;;;;;5025746;28;19921;-80
2022/10/02 09:21:09;;;;;;;;;;;19.00;99.90;;;;;;5026977;28;20003;-79
2022/10/02 09:23:35;;;;;;;;;;;19.30;99.90;;;;;;5026577;28;19924;-80
2022/10/02 09:26:19;;;;;;;;;;;19.70;99.90;;;;;;5025887;28;19932;-80
2022/10/02 09:28:53;;;;;;;;;;;19.70;99.90;;;;;;5027013;28;19913;-80
2022/10/02 09:31:25;;;;;;;;;;;19.50;99.90;;;;;;5027155;28;19913;-80
2022/10/02 09:33:59;;;;;;;;;;;19.60;99.90;;;;;;5025615;28;19913;-79
2022/10/02 09:36:34;;;;;;;;;;;19.30;99.90;;;;;;5027416;28;19913;-80
2022/10/02 09:39:18;;;;;;;;;;;19.40;99.90;;;;;;5025588;28;19913;-80
2022/10/02 09:41:48;;;;;;;;;;;19.40;99.90;;;;;;5026934;28;19913;-80
2022/10/02 09:44:19;;;;;;;;;;;19.30;99.90;;;;;;5020554;28;19955;-80
2022/10/02 09:46:57;;;;;;;;;;;19.20;99.90;;;;;;5023498;28;19913;-80
2022/10/02 09:49:24;;;;;;;;;;;18.90;99.90;;;;;;5026761;28;19960;-79
2022/10/02 09:51:52;;;;;;;;;;;18.80;99.90;;;;;;5025263;28;19913;-79
2022/10/02 09:54:37;;;;;;;;;;;18.90;99.90;;;;;;5022072;28;19921;-79
2022/10/02 09:57:11;;;;;;;;;;;19.20;99.90;;;;;;5022474;28;19913;-80
2022/10/02 09:59:46;;;;;;;;;;;19.40;99.90;;;;;;5026028;28;20048;-80
2022/10/02 10:02:12;;;;;;;;;;;19.50;99.90;;;;;;5027612;28;20607;-80
2022/10/02 10:05:07;;;;;;;;;;;19.50;99.90;;;;;;5027383;28;20007;-79
2022/10/02 10:07:52;;;;;;;;;;;19.30;99.90;;;;;;5027793;28;19920;-80
2022/10/02 10:10:24;;;;;;;;;;;19.40;99.90;;;;;;5025856;28;19913;-80
2022/10/02 10:13:06;;;;;;;;;;;19.80;99.90;;;;;;5027015;28;19913;-80
2022/10/02 10:15:50;;;;;;;;;;;19.40;99.90;;;;;;5023729;28;19909;-80
2022/10/02 10:18:25;;;;;;;;;;;19.30;99.90;;;;;;5025645;28;19944;-79
2022/10/02 10:20:57;;;;;;;;;;;19.20;99.90;;;;;;5023696;28;19917;-79
2022/10/02 10:23:25;;;;;;;;;;;19.00;99.90;;;;;;5027043;28;19971;-80
2022/10/02 10:26:16;;;;;;;;;;;18.80;99.90;;;;;;5025593;28;19991;-80
2022/10/02 10:28:45;;;;;;;;;;;18.70;99.90;;;;;;5026360;28;20011;-80
2022/10/02 10:31:29;;;;;;;;;;;18.70;99.90;;;;;;5026382;28;19920;-79
2022/10/02 10:34:01;;;;;;;;;;;18.40;99.90;;;;;;5024476;28;20382;-79
2022/10/02 10:39:29;;;;;;;;;;;18.40;99.90;;;;;;5022049;28;19992;-79
2022/10/02 10:41:56;;;;;;;;;;;18.20;99.90;;;;;;5027492;28;20345;-79
2022/10/02 10:44:24;;;;;;;;;;;18.20;99.90;;;;;;5030263;28;19935;-79
2022/10/02 10:46:50;;;;;;;;;;;18.50;99.90;;;;;;5029630;28;19959;-79
2022/10/02 10:49:37;;;;;;;;;;;18.40;99.90;;;;;;5029640;28;20478;-80
2022/10/02 10:52:06;;;;;;;;;;;18.60;99.90;;;;;;5021817;28;19959;-80
2022/10/02 10:54:31;;;;;;;;;;;19.00;99.90;;;;;;5029974;28;20395;-79
2022/10/02 10:57:03;;;;;;;;;;;19.60;99.90;;;;;;5029296;28;19960;-79
2022/10/02 10:59:44;;;;;;;;;;;19.60;99.90;;;;;;5024115;28;20026;-79
2022/10/02 11:02:42;;;;;;;;;;;20.00;99.90;;;;;;5025376;28;20457;-80
2022/10/02 11:05:14;;;;;;;;;;;19.90;99.90;;;;;;4991515;28;19928;-80
2022/10/02 11:08:01;;;;;;;;;;;19.80;99.90;;;;;;5028201;28;19913;-79
2022/10/02 11:10:36;;;;;;;;;;;19.90;99.90;;;;;;5042432;28;19920;-79
2022/10/02 11:13:21;;;;;;;;;;;19.60;99.90;;;;;;5029748;28;20675;-80
2022/10/02 11:16:13;;;;;;;;;;;19.60;99.90;;;;;;5022055;28;19913;-79
2022/10/02 11:18:38;;;;;;;;;;;19.70;99.90;;;;;;5031408;28;20490;-78
2022/10/02 11:21:12;;;;;;;;;;;20.30;99.90;;;;;;5028599;28;19960;-78
2022/10/02 11:23:47;;;;;;;;;;;20.30;99.90;;;;;;5026948;28;19923;-79
2022/10/02 11:26:20;;;;;;;;;;;20.40;99.90;;;;;;5028488;28;20396;-80
2022/10/02 11:29:04;;;;;;;;;;;20.80;99.90;;;;;;5028254;28;19948;-81
2022/10/02 11:31:39;;;;;;;;;;;20.70;99.90;;;;;;5028841;28;19917;-79
2022/10/02 11:34:23;;;;;;;;;;;20.50;99.90;;;;;;5024836;28;19917;-78
2022/10/02 11:37:06;;;;;;;;;;;20.20;99.90;;;;;;5024072;28;20024;-79
2022/10/02 11:39:40;;;;;;;;;;;19.90;99.90;;;;;;5027795;28;19917;-78
2022/10/02 11:42:24;;;;;;;;;;;20.10;99.90;;;;;;5028989;28;19943;-79
2022/10/02 11:44:50;;;;;;;;;;;20.50;99.90;;;;;;5025634;28;19959;-78
2022/10/02 11:47:34;;;;;;;;;;;20.50;99.90;;;;;;5028629;28;19932;-80
2022/10/02 11:50:22;;;;;;;;;;;20.20;99.90;;;;;;5018855;28;19924;-80
2022/10/02 11:53:00;;;;;;;;;;;20.20;99.90;;;;;;5031864;28;19921;-78
2022/10/02 11:55:28;;;;;;;;;;;20.20;99.90;;;;;;5016367;28;19918;-81
2022/10/02 11:57:54;;;;;;;;;;;20.00;99.90;;;;;;5012839;28;19921;-79
2022/10/02 12:00:23;;;;;;;;;;;20.30;99.90;;;;;;5011620;28;19924;-79
2022/10/02 12:02:56;;;;;;;;;;;20.50;99.90;;;;;;5032682;28;20012;-79
2022/10/02 12:05:52;;;;;;;;;;;20.40;99.90;;;;;;5011557;28;19928;-79
2022/10/02 12:08:23;;;;;;;;;;;20.40;99.90;;;;;;5005683;28;19917;-79
2022/10/02 12:11:08;;;;;;;;;;;20.70;99.90;;;;;;5029620;28;20011;-80
2022/10/02 12:13:59;;;;;;;;;;;20.70;99.90;;;;;;5009464;28;19913;-80
2022/10/02 12:16:44;;;;;;;;;;;20.60;99.90;;;;;;5012560;28;19923;-79
2022/10/02 12:19:15;;;;;;;;;;;20.40;99.90;;;;;;5026896;28;19928;-79
2022/10/02 12:27:47;;;;;;;;;;;19.60;99.90;;;;;;5027394;28;20059;-80
2022/10/02 12:30:14;;;;;;;;;;;19.90;99.90;;;;;;5026432;28;19917;-81
2022/10/02 12:32:55;;;;;;;;;;;20.30;99.90;;;;;;5025744;28;19917;-81
2022/10/02 12:35:23;;;;;;;;;;;20.30;99.90;;;;;;5021253;28;20379;-80
2022/10/02 12:38:07;;;;;;;;;;;19.90;99.90;;;;;;5026745;28;19967;-80
2022/10/02 12:40:40;;;;;;;;;;;20.10;99.90;;;;;;5027270;28;19944;-80
2022/10/02 12:43:42;;;;;;;;;;;20.00;99.90;;;;;;5026072;28;19967;-80
2022/10/02 12:46:12;;;;;;;;;;;20.20;99.90;;;;;;4945700;29;20029;-81
2022/10/02 12:49:01;;;;;;;;;;;20.40;99.90;;;;;;5007370;28;19917;-79
2022/10/02 12:51:33;;;;;;;;;;;20.70;99.90;;;;;;5013221;28;19917;-80
2022/10/02 12:54:17;;;;;;;;;;;20.70;99.90;;;;;;5026170;28;20022;-81
2022/10/02 12:57:00;;;;;;;;;;;20.80;99.90;;;;;;5021451;28;21251;-79
2022/10/02 12:59:29;;;;;;;;;;;20.80;99.90;;;;;;5024345;28;20300;-79
2022/10/02 13:02:13;;;;;;;;;;;20.60;99.90;;;;;;5024946;28;20371;-80
2022/10/02 13:04:39;;;;;;;;;;;20.30;99.90;;;;;;5024752;28;19963;-80
2022/10/02 13:07:40;;;;;;;;;;;20.40;99.90;;;;;;5027577;28;19917;-80
2022/10/02 13:10:37;;;;;;;;;;;20.50;99.90;;;;;;4966409;28;19914;-80
2022/10/02 13:13:06;;;;;;;;;;;20.50;99.90;;;;;;4993878;28;19921;-79
2022/10/02 13:15:41;;;;;;;;;;;20.20;99.90;;;;;;5027286;28;19971;-79
2022/10/02 13:18:26;;;;;;;;;;;20.50;99.90;;;;;;5024986;28;19956;-79
2022/10/02 13:20:57;;;;;;;;;;;20.80;99.90;;;;;;5020637;28;19918;-79
2022/10/02 13:23:41;;;;;;;;;;;20.80;99.90;;;;;;5025177;28;19917;-79
2022/10/02 13:26:12;;;;;;;;;;;20.90;99.90;;;;;;5015622;28;19932;-79
2022/10/02 13:28:40;;;;;;;;;;;20.60;99.90;;;;;;5026964;28;20659;-78
2022/10/02 13:31:15;;;;;;;;;;;20.30;99.90;;;;;;5027780;28;19913;-80
2022/10/02 13:33:53;;;;;;;;;;;20.20;99.90;;;;;;5027377;28;19923;-79
2022/10/02 13:36:23;;;;;;;;;;;20.80;99.90;;;;;;5027483;28;20396;-80
2022/10/02 13:38:54;;;;;;;;;;;21.10;99.90;;;;;;5027214;28;20814;-79
2022/10/02 13:41:39;;;;;;;;;;;21.30;99.90;;;;;;5027376;28;19913;-79
2022/10/02 13:44:19;;;;;;;;;;;21.10;99.90;;;;;;5025517;28;19927;-79
2022/10/02 13:46:45;;;;;;;;;;;21.00;99.90;;;;;;5026108;28;19920;-80
2022/10/02 13:49:13;;;;;;;;;;;20.70;99.90;;;;;;5026841;28;20304;-79
2022/10/02 13:51:57;;;;;;;;;;;20.70;99.90;;;;;;5027089;28;20308;-79
2022/10/02 13:54:33;;;;;;;;;;;20.80;99.90;;;;;;5027644;28;19913;-80
2022/10/02 13:57:17;;;;;;;;;;;21.00;99.90;;;;;;5015729;28;19913;-79
2022/10/02 13:59:52;;;;;;;;;;;20.80;99.90;;;;;;5026496;28;20024;-79
2022/10/02 14:02:30;;;;;;;;;;;20.90;99.90;;;;;;5025258;28;19937;-79
2022/10/02 14:05:02;;;;;;;;;;;20.70;99.90;;;;;;5024805;28;19921;-79
2022/10/02 14:07:39;;;;;;;;;;;20.50;99.90;;;;;;5026832;28;19986;-79
2022/10/02 14:10:24;;;;;;;;;;;20.30;99.90;;;;;;5015998;28;19941;-79
2022/10/02 14:13:10;;;;;;;;;;;20.30;99.90;;;;;;5027461;28;19920;-78
2022/10/02 14:15:43;;;;;;;;;;;20.50;99.90;;;;;;5030177;28;19913;-79
2022/10/02 14:18:22;;;;;;;;;;;20.50;99.90;;;;;;5028175;28;19951;-79
2022/10/02 14:20:51;;;;;;;;;;;20.30;99.90;;;;;;5030271;28;19924;-79
2022/10/02 14:23:17;;;;;;;;;;;20.10;99.90;;;;;;5030298;28;19913;-78
2022/10/02 14:25:42;;;;;;;;;;;20.20;99.90;;;;;;5030408;28;19932;-78
2022/10/02 14:28:14;;;;;;;;;;;20.20;99.90;;;;;;5031007;28;20652;-78
2022/10/02 14:30:59;;;;;;;;;;;20.20;99.90;;;;;;5030232;28;19963;-79
2022/10/02 14:33:54;;;;;;;;;;;20.10;99.90;;;;;;5030352;28;19917;-79
2022/10/02 14:36:31;;;;;;;;;;;20.00;99.90;;;;;;5016690;28;19948;-78
2022/10/02 14:39:05;;;;;;;;;;;19.90;99.90;;;;;;5029437;28;19917;-79
2022/10/02 14:41:34;;;;;;;;;;;19.70;99.90;;;;;;5029292;28;19992;-78
2022/10/02 14:44:12;;;;;;;;;;;19.70;99.90;;;;;;5028444;28;20810;-78
2022/10/02 14:46:44;;;;;;;;;;;19.70;99.90;;;;;;5028551;28;20016;-79
2022/10/02 14:49:16;;;;;;;;;;;19.80;99.90;;;;;;5028910;28;19917;-79
2022/10/02 14:52:01;;;;;;;;;;;20.00;99.90;;;;;;5027852;28;19980;-79
2022/10/02 14:54:45;;;;;;;;;;;20.00;99.90;;;;;;5029679;28;19917;-79
2022/10/02 14:57:30;;;;;;;;;;;19.90;99.90;;;;;;5028924;28;19917;-79
2022/10/02 15:00:04;;;;;;;;;;;19.90;99.90;;;;;;5015376;28;19948;-79
2022/10/02 15:02:48;;;;;;;;;;;19.90;99.90;;;;;;5041366;28;19917;-78
2022/10/02 15:05:33;;;;;;;;;;;19.80;99.90;;;;;;5026958;28;20004;-80
2022/10/02 15:07:59;;;;;;;;;;;19.50;99.90;;;;;;5021469;28;20315;-79